Airfield :
LOGIN :

Register | Disclaimer

   EN    FR    IT 

 










Legend :    VFR   Marginal VFR   IFR   Intensive IFR   Very Intensive IFR
Visi :
Ceiling :
>= 8 km
>= 3000ft
5 to 8 km
1000 to 3000 ft
1500m to 5 km
500 to 1000 ft
800 to 1500m
200 to 500 ft
< 800m
< 200 ft
Symbols :   Thunderstorms  Fog  Heavy snow  Heavy precipitations  Wind > 20 kt
SIGMETs :     Misc.  Thunderstorms  Icing  Turbulence  Mountain Waves  Volcanic Ashes







- Airport Elevation : 1708 ft
- IATA code : SJJ


LQSA - Sarajevo

CURRENT METAR :
  • 190800Z 30004KT 4000 -RA BR FEW010 BKN015 OVC037 18/17 Q1020 RERA BECMG 5000

EXPIRED METARs :
  • 190730Z 29004KT 230V340 2500 RA BR FEW002 BKN010 OVC025 17/16 Q1019 BECMG 3000 BKN015
  • 190700Z VRB02KT 2500 RA BR FEW002 BKN010 OVC025 17/17 Q1019 BECMG 3000 BKN015
  • 190630Z VRB02KT 3000 -RA BR FEW003 BKN015 OVC030 17/17 Q1019 TEMPO BKN010
  • 190600Z VRB02KT 2500 -RA BR FEW002 BKN015 OVC030 16/16 Q1019 RERA TEMPO BKN010
  • 190530Z 33003KT 310V020 2500 RA BR SCT002 BKN010 OVC027 16/16 Q1019 BECMG NSW

TAF TAF LQSA
Valid from the 19 at 06:00 until the 20 at 06:00 UTC


190500Z 1906/2006 30005KT 8000 BKN050 TX22/1914Z TN14/2003Z
TEMPO 1906/2002 2500 RA BR SCT007 BKN013 BKN030
PROB30
TEMPO 1909/1921 TSRA FEW030CB BKN050
PROB30
TEMPO 2002/2006 2000 BR BKN003
No reported NOTAMs for that airfield.



MET'MAP, your aeronautical weather chart ! - Copyright ORBIFLY December 2007 - Disclaimer

ORBIFLY MET'MAP TEAM :

Programming & Development : Alexandra Zaïnal
Concept & Development : Baudouin d'Aumeries
Co-Development & Prog : Marc-Olivier Méhu
Technical & hardware support : Manuel Goepfert

Contact : metmap@orbifly.com




SOURCES & CREDITS :

   NOAA